Time;durP1;ratioP1;P1;durP2;ratioP2;P2;SDS_P1;SDS_P2;PMS_P1;PMS_P2;Temp;Humidity;BMP_temperature;BMP_pressure;BME280_temperature;BME280_humidity;BME280_pressure;Samples;Min_cycle;Max_cycle;Signal;HPM_P1;HPM_P2
2020/12/30 00:00:11;;;;;;;0.00;0.00;;;3.70;99.90;;;;;;5076928;28;20032;-86
2020/12/30 00:02:37;;;;;;;0.10;0.10;;;3.70;99.90;;;;;;5072269;28;20028;-86
2020/12/30 00:05:08;;;;;;;0.00;0.00;;;3.70;51.80;;;;;;5076244;28;20024;-87
2020/12/30 00:07:35;;;;;;;0.10;0.10;;;3.70;99.90;;;;;;5089332;28;20048;-86
2020/12/30 00:10:01;;;;;;;0.10;0.10;;;3.70;99.90;;;;;;5088632;28;20457;-86
2020/12/30 00:12:28;;;;;;;0.10;0.10;;;3.70;99.90;;;;;;5076955;28;20032;-85
2020/12/30 00:14:56;;;;;;;0.30;0.30;;;3.70;99.90;;;;;;5090655;28;20020;-85
2020/12/30 00:17:22;;;;;;;0.30;0.30;;;3.70;99.90;;;;;;5082287;28;20515;-86
2020/12/30 00:19:48;;;;;;;0.50;0.50;;;3.70;99.90;;;;;;5077573;28;20024;-86
2020/12/30 00:22:14;;;;;;;3.83;0.80;;;3.70;99.90;;;;;;5088845;28;20054;-86
2020/12/30 00:24:39;;;;;;;1.13;0.73;;;3.70;99.90;;;;;;5088144;28;20061;-85
2020/12/30 00:27:05;;;;;;;0.20;0.20;;;3.70;99.90;;;;;;5079459;28;20063;-86
2020/12/30 00:29:31;;;;;;;2.60;0.93;;;3.60;99.90;;;;;;5074597;28;20024;-86
2020/12/30 00:31:57;;;;;;;0.10;0.10;;;3.60;99.90;;;;;;5088774;28;20017;-86
2020/12/30 00:34:24;;;;;;;0.37;0.37;;;3.50;99.90;;;;;;5089502;28;20056;-86
2020/12/30 00:36:50;;;;;;;0.50;0.50;;;3.50;99.90;;;;;;5088173;28;20355;-86
2020/12/30 00:39:15;;;;;;;0.10;0.10;;;3.50;99.90;;;;;;5087347;28;20032;-86
2020/12/30 00:41:41;;;;;;;0.20;0.20;;;3.40;99.90;;;;;;5088878;28;20040;-86
2020/12/30 00:44:08;;;;;;;0.03;0.03;;;3.30;99.90;;;;;;5078419;28;20033;-87
2020/12/30 00:46:34;;;;;;;0.10;0.10;;;3.20;99.90;;;;;;5087806;28;20073;-86
2020/12/30 00:48:59;;;;;;;0.10;0.10;;;3.10;99.90;;;;;;5087378;28;20759;-86
2020/12/30 00:51:25;;;;;;;0.10;0.10;;;3.10;99.90;;;;;;5088962;28;20024;-86
2020/12/30 00:53:51;;;;;;;1.00;0.90;;;3.00;99.90;;;;;;5089911;28;20543;-86
2020/12/30 00:56:17;;;;;;;0.10;0.10;;;3.00;99.90;;;;;;5081740;28;20027;-86
2020/12/30 00:58:42;;;;;;;0.00;0.00;;;2.80;99.90;;;;;;5089802;28;20038;-87
2020/12/30 01:01:09;;;;;;;0.10;0.10;;;2.90;99.90;;;;;;5080175;28;20024;-86
2020/12/30 01:03:36;;;;;;;0.10;0.10;;;2.80;99.90;;;;;;5088247;28;20028;-86
2020/12/30 01:06:02;;;;;;;;;;;2.80;99.90;;;;;;5084103;28;20103;-87
2020/12/30 01:08:28;;;;;;;0.20;0.20;;;2.80;99.90;;;;;;5085376;28;19904;-87
2020/12/30 01:10:54;;;;;;;0.10;0.10;;;2.80;99.90;;;;;;5076186;28;20036;-86
2020/12/30 01:13:20;;;;;;;0.10;0.10;;;2.80;99.90;;;;;;5080400;28;20024;-86
2020/12/30 01:15:46;;;;;;;0.25;0.25;;;2.70;99.90;;;;;;5085402;28;20038;-86
2020/12/30 01:18:12;;;;;;;0.00;0.00;;;2.80;99.90;;;;;;5078707;28;20471;-86
2020/12/30 01:20:37;;;;;;;0.10;0.10;;;2.80;99.90;;;;;;5078544;28;20035;-86
2020/12/30 01:23:03;;;;;;;0.10;0.10;;;2.80;99.90;;;;;;5086627;28;20023;-86
2020/12/30 01:25:29;;;;;;;0.10;0.10;;;2.80;99.90;;;;;;5086204;28;20518;-86
2020/12/30 01:27:55;;;;;;;0.10;0.10;;;2.80;99.90;;;;;;5089508;28;20879;-86
2020/12/30 01:30:22;;;;;;;0.00;0.00;;;2.80;99.90;;;;;;5079624;28;20055;-87
2020/12/30 01:32:48;;;;;;;0.10;0.10;;;2.60;99.90;;;;;;5087890;28;20507;-86
2020/12/30 01:35:13;;;;;;;0.00;0.00;;;2.60;99.90;;;;;;5089148;28;20056;-86
2020/12/30 01:37:40;;;;;;;0.10;0.10;;;2.70;99.90;;;;;;5084294;28;20043;-86
2020/12/30 01:40:06;;;;;;;0.10;0.10;;;2.60;99.90;;;;;;5087047;28;20024;-87
2020/12/30 01:42:50;;;;;;;0.10;0.10;;;2.60;99.90;;;;;;5086638;28;20036;-87
2020/12/30 01:45:16;;;;;;;0.10;0.10;;;2.50;99.90;;;;;;5085974;28;20031;-87
2020/12/30 01:47:46;;;;;;;0.05;0.05;;;2.50;99.90;;;;;;5083151;28;20038;-87
2020/12/30 01:50:14;;;;;;;0.10;0.10;;;2.70;99.90;;;;;;5087538;28;20028;-87
2020/12/30 01:52:41;;;;;;;0.47;0.47;;;2.60;99.90;;;;;;5084892;28;20125;-87
2020/12/30 01:55:08;;;;;;;0.30;0.30;;;2.50;99.90;;;;;;5087816;28;20059;-86
2020/12/30 01:57:36;;;;;;;0.10;0.10;;;2.60;99.90;;;;;;5074135;28;20082;-86
2020/12/30 02:00:12;;;;;;;0.10;0.10;;;2.50;99.90;;;;;;5077465;28;20030;-87
2020/12/30 02:02:40;;;;;;;0.10;0.10;;;2.50;99.90;;;;;;5085289;28;20032;-87
2020/12/30 02:05:09;;;;;;;0.10;0.10;;;2.60;99.90;;;;;;5088267;28;20028;-86
2020/12/30 02:07:36;;;;;;;0.10;0.10;;;2.60;1.00;;;;;;5077487;28;20115;-86
2020/12/30 02:10:03;;;;;;;0.10;0.10;;;2.40;1.00;;;;;;5066259;28;20030;-87
2020/12/30 02:12:29;;;;;;;0.08;0.08;;;2.60;21.90;;;;;;5074605;28;20059;-86
2020/12/30 02:14:55;;;;;;;0.28;0.28;;;2.60;92.30;;;;;;5086626;28;20515;-86
2020/12/30 02:17:21;;;;;;;2.17;2.05;;;2.60;99.90;;;;;;5088096;28;20020;-86
2020/12/30 02:19:46;;;;;;;1.65;1.55;;;2.70;99.90;;;;;;5076319;28;20115;-87
2020/12/30 02:22:20;;;;;;;0.10;0.10;;;2.60;99.90;;;;;;5078076;28;20538;-87
2020/12/30 02:24:45;;;;;;;0.17;0.17;;;2.70;99.90;;;;;;5083481;28;20089;-87
2020/12/30 02:27:11;;;;;;;0.40;0.40;;;2.90;99.90;;;;;;5086613;28;20426;-87
2020/12/30 02:29:37;;;;;;;0.10;0.10;;;2.80;99.90;;;;;;5086202;28;20020;-86
2020/12/30 02:32:03;;;;;;;0.10;0.10;;;2.80;90.90;;;;;;5085519;28;20032;-87
2020/12/30 02:34:29;;;;;;;0.30;0.30;;;2.80;99.90;;;;;;5086737;28;20024;-87
2020/12/30 02:36:57;;;;;;;2.85;1.55;;;2.80;99.90;;;;;;5066623;28;20063;-87
2020/12/30 02:39:23;;;;;;;0.20;0.20;;;2.80;1.00;;;;;;5073206;28;20388;-88
2020/12/30 02:41:49;;;;;;;0.10;0.10;;;2.80;99.90;;;;;;5085469;28;20554;-87
2020/12/30 02:44:15;;;;;;;0.30;0.30;;;2.70;99.90;;;;;;5082726;28;20028;-87
2020/12/30 02:46:41;;;;;;;0.10;0.10;;;2.80;99.90;;;;;;5080299;28;20872;-87
2020/12/30 02:49:07;;;;;;;0.20;0.20;;;2.70;99.90;;;;;;5070607;28;20119;-87
2020/12/30 02:51:33;;;;;;;3.13;1.35;;;2.70;99.90;;;;;;5067979;28;20024;-86
2020/12/30 02:53:59;;;;;;;0.10;0.10;;;2.80;99.90;;;;;;5086673;28;20119;-87
2020/12/30 02:56:24;;;;;;;0.10;0.10;;;2.90;99.90;;;;;;5078485;28;20081;-87
2020/12/30 02:58:50;;;;;;;0.30;0.30;;;2.90;99.90;;;;;;5073077;28;20497;-87
2020/12/30 03:01:17;;;;;;;0.10;0.10;;;2.90;99.90;;;;;;5087241;28;20114;-87
2020/12/30 03:03:44;;;;;;;2.83;2.17;;;2.90;99.90;;;;;;5088054;28;20027;-86
2020/12/30 03:06:10;;;;;;;;;;;2.80;99.90;;;;;;5091750;28;20554;-86
2020/12/30 03:08:37;;;;;;;0.77;0.77;;;2.90;99.90;;;;;;5091536;28;19990;-86
2020/12/30 03:11:04;;;;;;;1.35;1.25;;;3.00;99.90;;;;;;5090902;28;20024;-86
2020/12/30 03:13:30;;;;;;;1.58;1.48;;;3.00;99.90;;;;;;5085384;28;20099;-86
2020/12/30 03:15:55;;;;;;;0.57;0.57;;;3.00;99.90;;;;;;5072640;28;20137;-86
2020/12/30 03:18:21;;;;;;;1.35;1.23;;;3.10;99.90;;;;;;5089111;28;20487;-87
2020/12/30 03:20:47;;;;;;;0.65;0.65;;;3.10;99.90;;;;;;5084021;28;20106;-88
2020/12/30 03:23:13;;;;;;;10.43;3.60;;;3.20;99.90;;;;;;5088255;28;20460;-88
2020/12/30 03:25:38;;;;;;;0.55;0.55;;;3.20;99.90;;;;;;5090599;28;20078;-88
2020/12/30 03:28:04;;;;;;;0.77;0.77;;;3.30;99.90;;;;;;5090679;28;20028;-87
2020/12/30 03:30:30;;;;;;;0.22;0.22;;;3.30;99.90;;;;;;5079189;28;20036;-87
2020/12/30 03:32:56;;;;;;;0.50;0.50;;;3.30;99.90;;;;;;5089345;28;20480;-87
2020/12/30 03:35:25;;;;;;;0.15;0.15;;;3.30;99.90;;;;;;5076521;28;20047;-87
2020/12/30 03:37:54;;;;;;;0.32;0.32;;;3.40;99.90;;;;;;5084847;28;20437;-87
2020/12/30 03:40:20;;;;;;;9.55;1.88;;;3.40;99.90;;;;;;5082998;28;20024;-87
2020/12/30 03:42:46;;;;;;;0.20;0.20;;;3.40;99.90;;;;;;5091373;28;20402;-87
2020/12/30 03:45:13;;;;;;;1.50;1.40;;;3.40;99.90;;;;;;5088932;28;20073;-87
2020/12/30 03:47:38;;;;;;;0.67;0.67;;;3.40;99.90;;;;;;5070610;28;20102;-87
2020/12/30 03:50:05;;;;;;;7.38;1.15;;;3.40;99.90;;;;;;5071099;28;20808;-87
2020/12/30 03:52:31;;;;;;;2.35;2.15;;;3.50;99.90;;;;;;5089701;28;20061;-87
2020/12/30 03:54:58;;;;;;;0.40;0.40;;;3.40;99.90;;;;;;5084186;28;20040;-87
2020/12/30 03:57:24;;;;;;;0.20;0.20;;;3.40;99.90;;;;;;5087060;28;20017;-86
2020/12/30 03:59:50;;;;;;;1.17;1.10;;;3.40;99.90;;;;;;5090370;28;20377;-87
2020/12/30 04:02:16;;;;;;;0.32;0.32;;;3.50;99.90;;;;;;5088308;28;20395;-87
2020/12/30 04:04:42;;;;;;;3.30;2.10;;;3.50;99.90;;;;;;5070343;28;20020;-87
2020/12/30 04:07:08;;;;;;;1.75;0.50;;;3.40;99.90;;;;;;5083006;28;20028;-87
2020/12/30 04:09:33;;;;;;;0.10;0.10;;;3.50;99.90;;;;;;5078518;28;20766;-86
2020/12/30 04:11:59;;;;;;;0.10;0.10;;;3.40;99.90;;;;;;5087003;28;20089;-87
2020/12/30 04:14:25;;;;;;;0.28;0.20;;;3.50;99.90;;;;;;5089684;28;20085;-86
2020/12/30 04:16:51;;;;;;;0.10;0.10;;;3.50;99.90;;;;;;5089693;28;20024;-86
2020/12/30 04:19:16;;;;;;;0.10;0.10;;;3.50;99.90;;;;;;5085268;28;20024;-87
2020/12/30 04:21:42;;;;;;;0.00;0.00;;;3.50;99.90;;;;;;5078156;28;20024;-87
2020/12/30 04:24:08;;;;;;;0.10;0.10;;;3.40;99.90;;;;;;5082652;28;20016;-86
2020/12/30 04:26:34;;;;;;;0.10;0.10;;;3.40;99.90;;;;;;5087119;28;20028;-85
2020/12/30 04:28:59;;;;;;;0.10;0.10;;;3.30;99.90;;;;;;5088547;28;20036;-85
2020/12/30 04:31:25;;;;;;;0.13;0.13;;;3.30;99.90;;;;;;5089333;28;20769;-86
2020/12/30 04:33:51;;;;;;;0.10;0.10;;;3.40;99.90;;;;;;5081481;28;20056;-86
2020/12/30 04:36:17;;;;;;;0.20;0.20;;;3.40;99.90;;;;;;5076995;28;20024;-86
2020/12/30 04:38:43;;;;;;;0.10;0.10;;;3.40;99.90;;;;;;5089627;28;20024;-86
2020/12/30 04:41:11;;;;;;;0.10;0.10;;;3.50;99.90;;;;;;5088357;28;20032;-86
2020/12/30 04:43:40;;;;;;;0.13;0.13;;;3.40;99.90;;;;;;5080145;28;20517;-86
2020/12/30 04:46:06;;;;;;;0.10;0.10;;;3.40;99.90;;;;;;5089231;28;20028;-86
2020/12/30 04:48:33;;;;;;;0.00;0.00;;;3.40;99.90;;;;;;5075289;28;20048;-86
2020/12/30 04:51:01;;;;;;;0.10;0.10;;;3.40;99.90;;;;;;5078584;28;20042;-86
2020/12/30 04:53:28;;;;;;;0.10;0.10;;;3.40;99.90;;;;;;5074229;28;20021;-87
2020/12/30 04:55:59;;;;;;;0.10;0.10;;;3.50;99.90;;;;;;5072667;28;20033;-86
2020/12/30 04:58:27;;;;;;;0.20;0.20;;;3.40;99.90;;;;;;5079880;28;20028;-84
2020/12/30 05:00:54;;;;;;;0.10;0.10;;;3.40;99.90;;;;;;5083148;28;20029;-85
2020/12/30 05:03:28;;;;;;;0.10;0.10;;;3.40;99.90;;;;;;5076815;28;20024;-85
2020/12/30 05:05:59;;;;;;;0.10;0.10;;;3.40;99.90;;;;;;5075538;28;20800;-85
2020/12/30 05:08:26;;;;;;;0.10;0.10;;;3.40;99.90;;;;;;5076124;28;20056;-86
2020/12/30 05:10:52;;;;;;;0.10;0.10;;;3.40;99.90;;;;;;5084209;28;20063;-85
2020/12/30 05:13:19;;;;;;;0.15;0.15;;;3.40;99.90;;;;;;5078823;28;20020;-85
2020/12/30 05:15:46;;;;;;;0.10;0.10;;;3.30;99.90;;;;;;5088720;28;20520;-85
2020/12/30 05:18:12;;;;;;;0.10;0.10;;;3.30;99.90;;;;;;5086309;28;20020;-85
2020/12/30 05:20:38;;;;;;;0.10;0.10;;;3.30;99.90;;;;;;5087226;28;20457;-85
2020/12/30 05:23:05;;;;;;;0.08;0.08;;;3.30;99.90;;;;;;5086723;28;20024;-85
2020/12/30 05:25:37;;;;;;;0.10;0.10;;;3.30;99.90;;;;;;5086447;28;20056;-85
2020/12/30 05:28:11;;;;;;;0.20;0.20;;;3.30;99.90;;;;;;5083263;28;20107;-84
2020/12/30 05:30:38;;;;;;;0.10;0.10;;;3.30;99.90;;;;;;5086834;28;20069;-84
2020/12/30 05:33:04;;;;;;;0.10;0.10;;;3.30;99.90;;;;;;5082411;28;20043;-85
2020/12/30 05:35:32;;;;;;;0.32;0.32;;;3.20;99.90;;;;;;5071319;28;20487;-84
2020/12/30 05:37:58;;;;;;;0.20;0.20;;;3.20;99.90;;;;;;5074168;28;20056;-85
2020/12/30 05:40:26;;;;;;;0.10;0.10;;;3.20;99.90;;;;;;5088410;28;20015;-86
2020/12/30 05:42:53;;;;;;;0.10;0.10;;;3.30;99.90;;;;;;5087217;28;20063;-86
2020/12/30 05:45:23;;;;;;;0.20;0.20;;;3.30;99.90;;;;;;5073690;28;20893;-86
2020/12/30 05:47:52;;;;;;;0.32;0.32;;;3.20;99.90;;;;;;5084998;28;20404;-86
2020/12/30 05:50:24;;;;;;;0.10;0.10;;;3.20;99.90;;;;;;5084473;28;20031;-86
2020/12/30 05:52:52;;;;;;;0.10;0.10;;;3.20;99.90;;;;;;5086729;28;20028;-85
2020/12/30 05:55:24;;;;;;;;;;;3.20;99.90;;;;;;5080011;28;20069;-85
2020/12/30 05:57:49;;;;;;;0.10;0.10;;;3.20;99.90;;;;;;5077737;28;19909;-86
2020/12/30 06:00:16;;;;;;;0.10;0.10;;;3.30;99.90;;;;;;5080904;28;20086;-88
2020/12/30 06:02:44;;;;;;;0.20;0.20;;;3.20;99.90;;;;;;5071023;28;20020;-88
2020/12/30 06:05:15;;;;;;;0.00;0.00;;;3.20;99.90;;;;;;5073661;28;20062;-87
2020/12/30 06:07:45;;;;;;;0.10;0.10;;;3.20;99.90;;;;;;5082702;28;20943;-89
2020/12/30 06:10:13;;;;;;;0.38;0.38;;;3.20;99.90;;;;;;5070915;28;20127;-86
2020/12/30 06:13:01;;;;;;;0.10;0.10;;;3.20;99.90;;;;;;5082929;28;20098;-87
2020/12/30 06:15:29;;;;;;;0.10;0.10;;;3.20;99.90;;;;;;5082766;28;20020;-85
2020/12/30 06:18:01;;;;;;;0.10;0.10;;;3.20;99.90;;;;;;5087791;28;20028;-86
2020/12/30 06:20:36;;;;;;;0.47;0.47;;;3.20;99.90;;;;;;5088117;28;20081;-87
2020/12/30 06:23:04;;;;;;;0.10;0.10;;;3.20;99.90;;;;;;5085784;28;20035;-86
2020/12/30 06:25:33;;;;;;;1.88;0.85;;;3.20;99.90;;;;;;5082205;28;20064;-86
2020/12/30 06:28:12;;;;;;;1.65;1.55;;;3.30;99.90;;;;;;5079470;28;20082;-86
2020/12/30 06:30:39;;;;;;;0.75;0.75;;;3.30;99.90;;;;;;5086661;28;20028;-85
2020/12/30 06:33:06;;;;;;;1.85;1.75;;;3.30;99.90;;;;;;5087042;28;20107;-86
2020/12/30 06:35:34;;;;;;;4.95;3.45;;;3.30;99.90;;;;;;5086153;28;20073;-86
2020/12/30 06:38:24;;;;;;;1.10;1.10;;;3.40;99.90;;;;;;5087429;28;20103;-87
2020/12/30 06:40:56;;;;;;;0.60;0.60;;;3.20;99.90;;;;;;5090185;28;20038;-85
2020/12/30 06:43:39;;;;;;;4.18;1.02;;;3.30;99.90;;;;;;5074749;28;20475;-86
2020/12/30 06:46:07;;;;;;;4.07;3.10;;;3.20;99.90;;;;;;5086640;28;20020;-86
2020/12/30 06:48:57;;;;;;;0.22;0.22;;;3.10;99.90;;;;;;5086469;28;20515;-86
2020/12/30 06:51:24;;;;;;;0.43;0.43;;;2.70;99.90;;;;;;5077493;28;20020;-85
2020/12/30 06:53:57;;;;;;;0.35;0.35;;;2.60;99.90;;;;;;5081309;28;20165;-85
2020/12/30 06:56:37;;;;;;;0.10;0.10;;;2.60;99.90;;;;;;5083102;28;20032;-85
2020/12/30 06:59:05;;;;;;;0.93;0.90;;;2.60;99.90;;;;;;5079154;28;20473;-85
2020/12/30 07:01:58;;;;;;;0.90;0.85;;;2.70;99.90;;;;;;5086150;28;20020;-85
2020/12/30 07:04:30;;;;;;;0.10;0.10;;;2.80;99.90;;;;;;5078165;28;20033;-85
2020/12/30 07:06:57;;;;;;;1.00;1.00;;;2.90;99.90;;;;;;5078671;28;20054;-84
2020/12/30 07:09:35;;;;;;;2.30;2.10;;;3.00;99.90;;;;;;5079914;28;20514;-84
2020/12/30 07:12:06;;;;;;;0.22;0.22;;;3.00;99.90;;;;;;5086858;28;20090;-84
2020/12/30 07:14:35;;;;;;;0.57;0.57;;;3.00;99.90;;;;;;5086301;28;20027;-84
2020/12/30 07:17:04;;;;;;;0.82;0.82;;;3.00;99.90;;;;;;5074264;28;20020;-84
2020/12/30 07:19:33;;;;;;;0.88;0.45;;;2.90;99.90;;;;;;5081940;28;20020;-85
2020/12/30 07:22:02;;;;;;;0.77;0.77;;;3.00;99.90;;;;;;5080798;28;20029;-85
2020/12/30 07:24:53;;;;;;;1.30;1.15;;;3.00;99.90;;;;;;5079568;28;20035;-85
2020/12/30 07:27:22;;;;;;;0.25;0.25;;;3.00;99.90;;;;;;5088280;28;20504;-85
2020/12/30 07:29:50;;;;;;;0.13;0.13;;;3.10;99.90;;;;;;5086179;28;20110;-85
2020/12/30 07:32:20;;;;;;;2.72;0.75;;;3.10;99.90;;;;;;5081422;28;20057;-84
2020/12/30 07:34:50;;;;;;;0.17;0.17;;;3.10;99.90;;;;;;5083133;28;20048;-84
2020/12/30 07:37:18;;;;;;;0.50;0.50;;;3.10;99.90;;;;;;5077009;28;20027;-85
2020/12/30 07:39:48;;;;;;;0.20;0.20;;;3.10;99.90;;;;;;5084854;28;20016;-85
2020/12/30 07:42:23;;;;;;;0.10;0.10;;;3.00;99.90;;;;;;5088005;28;20016;-85
2020/12/30 07:44:49;;;;;;;0.17;0.15;;;3.00;99.90;;;;;;5070978;28;20029;-85
2020/12/30 07:47:16;;;;;;;0.30;0.30;;;3.00;99.90;;;;;;5090732;28;20042;-85
2020/12/30 07:49:43;;;;;;;0.35;0.35;;;2.90;99.90;;;;;;5089033;28;20043;-87
2020/12/30 07:52:09;;;;;;;0.68;0.68;;;2.80;99.90;;;;;;5087575;28;20024;-87
2020/12/30 07:54:35;;;;;;;0.10;0.10;;;3.00;99.90;;;;;;5083712;28;20519;-86
2020/12/30 07:57:01;;;;;;;0.10;0.10;;;3.00;99.90;;;;;;5085730;28;20027;-86
2020/12/30 07:59:27;;;;;;;0.10;0.10;;;3.00;99.90;;;;;;5080204;28;20024;-86
2020/12/30 08:01:57;;;;;;;0.17;0.17;;;3.00;99.90;;;;;;5085558;28;20028;-85
2020/12/30 08:04:24;;;;;;;0.57;0.57;;;3.10;99.90;;;;;;5090787;28;20027;-87
2020/12/30 08:06:50;;;;;;;0.10;0.10;;;3.10;99.90;;;;;;5088188;28;20036;-87
2020/12/30 08:09:16;;;;;;;0.55;0.55;;;3.10;99.90;;;;;;5085282;28;20031;-86
2020/12/30 08:11:53;;;;;;;0.80;0.80;;;3.10;99.90;;;;;;5089411;28;20028;-85
2020/12/30 08:14:21;;;;;;;0.20;0.20;;;3.10;99.90;;;;;;5088630;28;20042;-85
2020/12/30 08:16:51;;;;;;;1.60;1.50;;;3.00;99.90;;;;;;5082668;28;20028;-86
2020/12/30 08:19:34;;;;;;;6.30;3.28;;;3.00;1.00;;;;;;5071108;28;20488;-86
2020/12/30 08:22:17;;;;;;;0.22;0.22;;;3.00;99.90;;;;;;5076583;28;20032;-86
2020/12/30 08:24:46;;;;;;;7.50;4.60;;;3.00;99.90;;;;;;5088901;28;20426;-87
2020/12/30 08:27:15;;;;;;;0.55;0.55;;;3.10;99.90;;;;;;5079588;28;20371;-87
2020/12/30 08:29:42;;;;;;;0.10;0.10;;;3.10;1.00;;;;;;5076881;28;20027;-87
2020/12/30 08:32:33;;;;;;;0.30;0.30;;;3.10;99.90;;;;;;5079263;28;20024;-87
2020/12/30 08:34:59;;;;;;;0.10;0.10;;;3.00;99.90;;;;;;5077628;28;20025;-86
2020/12/30 08:37:29;;;;;;;2.92;1.27;;;3.00;1.00;;;;;;5074667;28;20554;-86
2020/12/30 08:40:04;;;;;;;0.10;0.10;;;3.00;1.00;;;;;;5075741;28;20028;-87
2020/12/30 08:42:53;;;;;;;0.17;0.17;;;3.00;1.00;;;;;;5081040;28;20024;-87
2020/12/30 08:45:36;;;;;;;0.00;0.00;;;3.10;1.00;;;;;;5078453;28;20075;-86
2020/12/30 08:48:13;;;;;;;0.85;0.85;;;2.90;1.00;;;;;;5076117;28;20053;-87
2020/12/30 08:50:40;;;;;;;0.20;0.20;;;3.00;1.00;;;;;;5074109;28;20036;-87
2020/12/30 08:53:06;;;;;;;0.55;0.55;;;2.90;1.00;;;;;;5081226;28;20442;-86
2020/12/30 08:55:31;;;;;;;0.15;0.15;;;3.00;1.00;;;;;;5068991;28;20144;-87
2020/12/30 08:57:58;;;;;;;0.28;0.28;;;3.00;99.90;;;;;;5070800;28;20468;-86
2020/12/30 09:00:27;;;;;;;0.10;0.10;;;3.00;99.90;;;;;;5078761;28;20020;-87
2020/12/30 09:02:54;;;;;;;0.00;0.00;;;2.90;99.90;;;;;;5079652;28;20035;-86
2020/12/30 09:05:26;;;;;;;0.10;0.10;;;3.00;99.90;;;;;;5073607;28;20115;-86
2020/12/30 09:07:53;;;;;;;0.20;0.20;;;3.00;99.90;;;;;;5074706;28;20060;-87
2020/12/30 09:10:19;;;;;;;2.13;1.90;;;3.00;99.90;;;;;;5081972;28;20024;-87
2020/12/30 09:12:45;;;;;;;0.38;0.38;;;3.00;99.90;;;;;;5071863;28;20026;-87
2020/12/30 09:15:14;;;;;;;0.52;0.52;;;3.00;99.90;;;;;;5074927;28;20019;-87
2020/12/30 09:17:41;;;;;;;0.20;0.20;;;3.10;99.90;;;;;;5083198;28;20028;-87
2020/12/30 09:20:16;;;;;;;0.10;0.10;;;3.20;99.90;;;;;;5078184;28;20020;-87
2020/12/30 09:22:44;;;;;;;0.05;0.05;;;3.20;99.90;;;;;;5079669;28;20557;-87
2020/12/30 09:25:27;;;;;;;0.10;0.10;;;3.20;99.90;;;;;;5080029;28;20042;-87
2020/12/30 09:27:53;;;;;;;0.17;0.17;;;3.20;99.90;;;;;;5074446;28;20016;-87
2020/12/30 09:30:23;;;;;;;0.15;0.15;;;3.30;99.90;;;;;;5075790;28;20074;-87
2020/12/30 09:32:49;;;;;;;0.10;0.10;;;3.40;99.90;;;;;;5077945;28;20033;-87
2020/12/30 09:35:17;;;;;;;0.83;0.83;;;3.50;99.90;;;;;;5076664;28;20082;-87
2020/12/30 09:37:56;;;;;;;0.05;0.05;;;3.60;99.90;;;;;;5084434;28;20387;-86
2020/12/30 09:40:23;;;;;;;0.10;0.10;;;3.60;99.90;;;;;;5076603;28;20799;-87
2020/12/30 09:42:49;;;;;;;0.25;0.25;;;3.50;99.90;;;;;;5076978;28;20032;-86
2020/12/30 09:45:18;;;;;;;0.10;0.10;;;3.80;99.90;;;;;;5086001;28;20039;-87
2020/12/30 09:47:44;;;;;;;0.20;0.20;;;3.80;99.90;;;;;;5079725;28;20054;-88
2020/12/30 09:50:15;;;;;;;0.20;0.20;;;3.70;99.90;;;;;;5070539;28;20024;-87
2020/12/30 09:52:43;;;;;;;0.45;0.45;;;3.80;99.90;;;;;;5078084;28;20026;-87
2020/12/30 09:55:11;;;;;;;0.22;0.17;;;3.70;99.90;;;;;;5075188;28;20024;-87
2020/12/30 09:57:37;;;;;;;0.10;0.10;;;3.50;99.90;;;;;;5087169;28;20399;-87
2020/12/30 10:00:07;;;;;;;0.20;0.20;;;3.50;99.90;;;;;;5074995;28;20035;-87
2020/12/30 10:02:33;;;;;;;0.10;0.10;;;3.60;99.90;;;;;;5084040;28;20084;-87
2020/12/30 10:04:59;;;;;;;0.45;0.45;;;3.50;99.90;;;;;;5080542;28;20490;-87
2020/12/30 10:07:26;;;;;;;0.40;0.40;;;3.70;99.90;;;;;;5084201;28;20020;-87
2020/12/30 10:09:52;;;;;;;0.10;0.10;;;3.50;99.90;;;;;;5069215;28;20032;-87
2020/12/30 10:12:21;;;;;;;0.63;0.63;;;3.60;99.90;;;;;;5072494;28;20022;-87
2020/12/30 10:14:47;;;;;;;0.10;0.10;;;3.80;99.90;;;;;;5085646;28;20047;-87
2020/12/30 10:17:13;;;;;;;0.70;0.70;;;3.90;99.90;;;;;;5087833;28;20483;-87
2020/12/30 10:19:39;;;;;;;0.20;0.20;;;3.80;99.90;;;;;;5082918;28;20832;-87
2020/12/30 10:22:08;;;;;;;0.45;0.45;;;3.70;99.90;;;;;;5076004;28;20111;-87
2020/12/30 10:24:34;;;;;;;0.10;0.10;;;3.70;99.90;;;;;;5088100;28;20036;-87
2020/12/30 10:27:00;;;;;;;0.20;0.20;;;3.90;99.90;;;;;;5087715;28;20136;-87
2020/12/30 10:29:28;;;;;;;0.10;0.10;;;3.80;99.90;;;;;;5073852;28;20024;-87
2020/12/30 10:31:55;;;;;;;0.10;0.10;;;3.90;99.90;;;;;;5088189;28;20034;-87
2020/12/30 10:34:21;;;;;;;;;;;4.10;99.90;;;;;;5088291;28;20398;-87
2020/12/30 10:36:47;;;;;;;0.10;0.10;;;4.10;99.90;;;;;;5087950;28;19907;-87
2020/12/30 10:39:13;;;;;;;0.25;0.25;;;4.00;99.90;;;;;;5087799;28;20050;-86
2020/12/30 10:41:39;;;;;;;0.10;0.10;;;4.00;99.90;;;;;;5088164;28;20020;-86
2020/12/30 10:44:05;;;;;;;0.45;0.40;;;4.00;99.90;;;;;;5087709;28;20035;-86
2020/12/30 10:46:31;;;;;;;0.15;0.15;;;3.90;99.90;;;;;;5073717;28;20689;-86
2020/12/30 10:48:57;;;;;;;0.00;0.00;;;4.00;99.90;;;;;;5087744;28;20051;-86
2020/12/30 10:51:23;;;;;;;0.10;0.10;;;4.00;99.90;;;;;;5087547;28;20404;-87
2020/12/30 10:53:48;;;;;;;0.15;0.15;;;4.10;99.90;;;;;;5086320;28;20496;-86
2020/12/30 10:56:14;;;;;;;0.10;0.10;;;4.30;99.90;;;;;;5079321;28;20028;-87
2020/12/30 10:58:40;;;;;;;0.20;0.20;;;4.70;99.90;;;;;;5087620;28;20032;-87
2020/12/30 11:01:13;;;;;;;0.40;0.40;;;4.70;99.90;;;;;;5086501;28;20059;-87
2020/12/30 11:03:40;;;;;;;0.35;0.35;;;4.70;99.90;;;;;;5087202;28;20036;-87
2020/12/30 11:06:07;;;;;;;0.20;0.20;;;4.90;99.90;;;;;;5087880;28;20112;-87
2020/12/30 11:08:33;;;;;;;0.10;0.10;;;4.90;99.90;;;;;;5087403;28;20035;-87
2020/12/30 11:11:01;;;;;;;0.10;0.10;;;4.90;99.90;;;;;;5086256;28;20796;-87
2020/12/30 11:13:27;;;;;;;0.38;0.38;;;4.80;99.90;;;;;;5087197;28;20024;-86
2020/12/30 11:15:53;;;;;;;0.08;0.08;;;5.00;99.90;;;;;;5087828;28;20552;-87
2020/12/30 11:18:20;;;;;;;0.10;0.10;;;4.60;99.90;;;;;;5086332;28;20054;-87
2020/12/30 11:20:46;;;;;;;0.52;0.52;;;4.80;99.90;;;;;;5087705;28;20040;-87
2020/12/30 11:23:12;;;;;;;0.00;0.00;;;4.40;99.90;;;;;;5087665;28;20560;-87
2020/12/30 11:25:41;;;;;;;0.30;0.22;;;4.70;99.90;;;;;;5086759;28;20320;-86
2020/12/30 11:28:06;;;;;;;0.10;0.10;;;4.50;99.90;;;;;;5072948;28;20047;-87
2020/12/30 11:30:32;;;;;;;0.10;0.10;;;4.30;99.90;;;;;;5090922;28;20056;-87
2020/12/30 11:32:58;;;;;;;0.57;0.57;;;4.40;99.90;;;;;;5090813;28;20028;-87
2020/12/30 11:35:26;;;;;;;0.10;0.10;;;4.40;99.90;;;;;;5089627;28;20023;-87
2020/12/30 11:37:52;;;;;;;0.10;0.10;;;4.40;99.90;;;;;;5091307;28;20093;-86
2020/12/30 11:40:18;;;;;;;0.10;0.10;;;4.40;99.90;;;;;;5089453;28;20487;-87
2020/12/30 11:42:44;;;;;;;0.15;0.15;;;4.60;99.90;;;;;;5089494;28;20490;-87
2020/12/30 11:45:10;;;;;;;0.10;0.10;;;4.80;99.90;;;;;;5090691;28;20054;-87
2020/12/30 11:47:36;;;;;;;0.10;0.10;;;5.10;99.90;;;;;;5090653;28;20690;-87
2020/12/30 11:50:03;;;;;;;1.38;1.27;;;4.70;99.90;;;;;;5090431;28;20050;-87
2020/12/30 11:52:28;;;;;;;0.65;0.65;;;4.80;99.90;;;;;;5085011;28;20438;-87
2020/12/30 11:54:54;;;;;;;0.10;0.10;;;4.70;99.90;;;;;;5075638;28;20074;-87
2020/12/30 11:57:20;;;;;;;0.10;0.10;;;4.70;99.90;;;;;;5073957;28;20488;-87
2020/12/30 11:59:46;;;;;;;1.50;0.65;;;4.50;99.90;;;;;;5075859;28;20111;-87
2020/12/30 12:02:12;;;;;;;0.10;0.10;;;4.60;99.90;;;;;;5079610;28;20514;-87
2020/12/30 12:04:38;;;;;;;0.20;0.20;;;4.80;99.90;;;;;;5076926;28;20093;-87
2020/12/30 12:07:04;;;;;;;0.10;0.10;;;4.80;99.90;;;;;;5073063;28;20136;-87
2020/12/30 12:09:30;;;;;;;0.10;0.10;;;5.00;99.90;;;;;;5080756;28;20571;-88
2020/12/30 12:11:56;;;;;;;0.10;0.10;;;5.60;99.90;;;;;;5076274;28;20484;-86
2020/12/30 12:14:22;;;;;;;0.10;0.10;;;5.90;99.90;;;;;;5088824;28;20024;-87
2020/12/30 12:16:55;;;;;;;0.82;0.82;;;5.90;99.90;;;;;;5089052;28;20024;-86
2020/12/30 12:19:21;;;;;;;0.10;0.10;;;5.80;99.90;;;;;;5075514;28;20024;-87
2020/12/30 12:21:47;;;;;;;0.10;0.10;;;5.40;99.90;;;;;;5088151;28;20936;-87
2020/12/30 12:24:14;;;;;;;0.13;0.13;;;5.70;99.90;;;;;;5082284;28;20111;-86
2020/12/30 12:26:40;;;;;;;0.10;0.10;;;5.70;99.90;;;;;;5089809;28;20032;-85
2020/12/30 12:29:34;;;;;;;0.13;0.13;;;5.50;99.90;;;;;;5085459;28;20036;-88
2020/12/30 12:32:11;;;;;;;0.28;0.28;;;5.50;99.90;;;;;;5075218;28;20032;-87
2020/12/30 12:34:39;;;;;;;0.20;0.20;;;5.30;99.90;;;;;;5074098;28;20024;-88
2020/12/30 12:37:07;;;;;;;0.10;0.10;;;5.40;99.90;;;;;;5086546;28;20392;-88
2020/12/30 12:39:36;;;;;;;0.43;0.38;;;5.40;99.90;;;;;;5072850;28;20092;-88
2020/12/30 12:42:03;;;;;;;1.48;0.75;;;5.40;99.90;;;;;;5072021;28;20024;-88
2020/12/30 12:44:30;;;;;;;0.10;0.10;;;5.50;99.90;;;;;;5069711;28;20021;-87
2020/12/30 12:46:56;;;;;;;0.03;0.03;;;5.90;99.90;;;;;;5072077;28;20032;-88
2020/12/30 12:49:23;;;;;;;0.35;0.35;;;5.90;99.90;;;;;;5075469;28;20443;-87
2020/12/30 12:51:56;;;;;;;0.22;0.22;;;5.90;99.90;;;;;;5080498;28;20050;-88
2020/12/30 12:54:23;;;;;;;0.10;0.10;;;5.60;99.90;;;;;;5081627;28;20031;-88
2020/12/30 12:56:55;;;;;;;0.10;0.10;;;5.50;99.90;;;;;;5079059;28;20032;-88
2020/12/30 12:59:21;;;;;;;0.10;0.10;;;5.80;99.90;;;;;;5075011;28;20255;-88
2020/12/30 13:01:46;;;;;;;0.20;0.20;;;6.00;99.90;;;;;;5071720;28;20085;-88